CFG9XY LDSP-EDDF
Flight info
| Callsign | CFG9XY |
|---|---|
| Flight time | 1h 30m |
| Altitude | 36000 |
| Route | ZDA DCT NIPEL DCT SIMBA DCT AKINI T161 DEBHI |
| Aircraft | A320/M-SDE3FGHIJ1LORVWXYZ/S |
Departure
| Time | 2026-05-07 19:57 |
|---|---|
| Airport | Split Saint Jerome Airport (LDSP) |
Arrival
| Time | 2026-05-07 21:28 |
|---|---|
| Airport | Frankfurt Main Airport (EDDF) |
| Time | Latitude | Longitude | Altitude | Speed | Heading |
|---|---|---|---|---|---|
| 2026-05-07 19:24 | 43.53762 | 16.29939 | 68 ft | 0 kts | 115° |
| 2026-05-07 19:48 | 43.53770 | 16.29958 | 62 ft | 2 kts | 26° |
| 2026-05-07 19:48 | 43.53775 | 16.29956 | 61 ft | 1 kts | 343° |
| 2026-05-07 19:48 | 43.53784 | 16.29935 | 63 ft | 3 kts | 285° |
| 2026-05-07 19:49 | 43.53788 | 16.29916 | 66 ft | 2 kts | 285° |
| 2026-05-07 19:49 | 43.53793 | 16.29887 | 65 ft | 4 kts | 279° |
| 2026-05-07 19:49 | 43.53784 | 16.29834 | 60 ft | 7 kts | 239° |
| 2026-05-07 19:49 | 43.53755 | 16.29782 | 65 ft | 6 kts | 233° |
| 2026-05-07 19:50 | 43.53732 | 16.29740 | 68 ft | 5 kts | 232° |
| 2026-05-07 19:50 | 43.53713 | 16.29705 | 65 ft | 4 kts | 232° |
| 2026-05-07 19:50 | 43.53698 | 16.29678 | 65 ft | 3 kts | 232° |
| 2026-05-07 19:50 | 43.53687 | 16.29659 | 65 ft | 1 kts | 232° |
| 2026-05-07 19:51 | 43.53682 | 16.29651 | 61 ft | 3 kts | 232° |
| 2026-05-07 19:51 | 43.53667 | 16.29620 | 65 ft | 2 kts | 252° |
| 2026-05-07 19:51 | 43.53668 | 16.29610 | 67 ft | 0 kts | 270° |
| 2026-05-07 19:54 | 43.53681 | 16.29576 | 65 ft | 7 kts | 317° |
| 2026-05-07 19:54 | 43.53699 | 16.29536 | 71 ft | 8 kts | 282° |
| 2026-05-07 19:54 | 43.53684 | 16.29417 | 82 ft | 17 kts | 245° |
| 2026-05-07 19:54 | 43.53616 | 16.29291 | 82 ft | 16 kts | 233° |
| 2026-05-07 19:55 | 43.53547 | 16.29167 | 81 ft | 19 kts | 232° |
| 2026-05-07 19:55 | 43.53457 | 16.29010 | 80 ft | 23 kts | 233° |
| 2026-05-07 19:55 | 43.53360 | 16.28829 | 83 ft | 24 kts | 233° |
| 2026-05-07 19:55 | 43.53261 | 16.28650 | 79 ft | 12 kts | 233° |
| 2026-05-07 19:56 | 43.53207 | 16.28619 | 75 ft | 7 kts | 203° |
| 2026-05-07 19:56 | 43.53218 | 16.28586 | 75 ft | 3 kts | 355° |
| 2026-05-07 19:56 | 43.53237 | 16.28607 | 73 ft | 5 kts | 53° |
| 2026-05-07 19:56 | 43.53261 | 16.28653 | 79 ft | 11 kts | 53° |
| 2026-05-07 19:57 | 43.53466 | 16.29017 | 82 ft | 85 kts | 52° |
| 2026-05-07 19:57 | 43.53953 | 16.29895 | 71 ft | 144 kts | 52° |
| 2026-05-07 19:57 | 43.54569 | 16.31016 | 593 ft | 146 kts | 50° |
| 2026-05-07 19:57 | 43.55192 | 16.32126 | 1233 ft | 146 kts | 51° |
| 2026-05-07 19:58 | 43.55653 | 16.33374 | 1615 ft | 156 kts | 80° |
| 2026-05-07 19:58 | 43.55584 | 16.34959 | 1736 ft | 182 kts | 113° |
| 2026-05-07 19:58 | 43.54804 | 16.36316 | 2388 ft | 183 kts | 144° |
| 2026-05-07 19:58 | 43.53604 | 16.36881 | 3085 ft | 185 kts | 171° |
| 2026-05-07 19:59 | 43.52353 | 16.37227 | 3727 ft | 184 kts | 156° |
| 2026-05-07 19:59 | 43.51195 | 16.38007 | 4328 ft | 186 kts | 153° |
| 2026-05-07 19:59 | 43.49968 | 16.38678 | 4722 ft | 199 kts | 174° |
| 2026-05-07 19:59 | 43.48554 | 16.38321 | 4957 ft | 222 kts | 211° |
| 2026-05-07 20:00 | 43.47534 | 16.36648 | 5277 ft | 249 kts | 249° |
| 2026-05-07 20:00 | 43.47474 | 16.34205 | 5829 ft | 269 kts | 286° |
| 2026-05-07 20:00 | 43.48382 | 16.31925 | 6644 ft | 276 kts | 306° |
| 2026-05-07 20:00 | 43.49670 | 16.29950 | 7480 ft | 279 kts | 311° |
| 2026-05-07 20:01 | 43.51074 | 16.28088 | 8354 ft | 281 kts | 313° |
| 2026-05-07 20:01 | 43.52494 | 16.26218 | 9186 ft | 284 kts | 312° |
| 2026-05-07 20:01 | 43.53899 | 16.24287 | 10014 ft | 286 kts | 311° |
| 2026-05-07 20:01 | 43.55298 | 16.22263 | 10502 ft | 301 kts | 309° |
| 2026-05-07 20:02 | 43.56764 | 16.20048 | 10716 ft | 324 kts | 308° |
| 2026-05-07 20:02 | 43.58304 | 16.17665 | 11075 ft | 340 kts | 308° |
| 2026-05-07 20:02 | 43.59889 | 16.15195 | 11700 ft | 346 kts | 308° |
| 2026-05-07 20:02 | 43.61487 | 16.12696 | 12431 ft | 349 kts | 308° |
| 2026-05-07 20:03 | 43.63096 | 16.10169 | 13168 ft | 352 kts | 308° |
| 2026-05-07 20:03 | 43.64714 | 16.07620 | 13880 ft | 355 kts | 308° |
| 2026-05-07 20:03 | 43.66349 | 16.05041 | 14505 ft | 358 kts | 308° |
| 2026-05-07 20:03 | 43.67996 | 16.02445 | 15118 ft | 361 kts | 308° |
| 2026-05-07 20:04 | 43.69635 | 15.99863 | 15738 ft | 364 kts | 308° |
| 2026-05-07 20:04 | 43.71312 | 15.97224 | 16367 ft | 367 kts | 308° |
| 2026-05-07 20:04 | 43.73001 | 15.94565 | 16972 ft | 370 kts | 308° |
| 2026-05-07 20:04 | 43.74708 | 15.91882 | 17568 ft | 373 kts | 308° |
| 2026-05-07 20:05 | 43.76426 | 15.89175 | 18160 ft | 376 kts | 307° |
| 2026-05-07 20:05 | 43.78155 | 15.86447 | 18698 ft | 379 kts | 307° |
| 2026-05-07 20:05 | 43.79901 | 15.83690 | 19239 ft | 382 kts | 307° |
| 2026-05-07 20:05 | 43.81657 | 15.80913 | 19785 ft | 384 kts | 307° |
| 2026-05-07 20:06 | 43.83420 | 15.78120 | 20322 ft | 386 kts | 307° |
| 2026-05-07 20:06 | 43.85191 | 15.75312 | 20855 ft | 388 kts | 307° |
| 2026-05-07 20:06 | 43.86974 | 15.72480 | 21364 ft | 391 kts | 307° |
| 2026-05-07 20:06 | 43.88765 | 15.69631 | 21860 ft | 394 kts | 307° |
| 2026-05-07 20:07 | 43.90569 | 15.66756 | 22368 ft | 396 kts | 306° |
| 2026-05-07 20:07 | 43.92383 | 15.63864 | 22893 ft | 398 kts | 306° |
| 2026-05-07 20:07 | 43.94206 | 15.60961 | 23379 ft | 400 kts | 306° |
| 2026-05-07 20:07 | 43.96037 | 15.58041 | 23814 ft | 402 kts | 306° |
| 2026-05-07 20:08 | 43.97879 | 15.55106 | 24221 ft | 404 kts | 306° |
| 2026-05-07 20:08 | 43.99724 | 15.52165 | 24628 ft | 404 kts | 306° |
| 2026-05-07 20:08 | 44.01571 | 15.49214 | 25034 ft | 405 kts | 306° |
| 2026-05-07 20:08 | 44.03418 | 15.46249 | 25425 ft | 406 kts | 306° |
| 2026-05-07 20:09 | 44.05244 | 15.43315 | 25808 ft | 406 kts | 306° |
| 2026-05-07 20:09 | 44.07101 | 15.40348 | 26189 ft | 408 kts | 307° |
| 2026-05-07 20:09 | 44.09195 | 15.37647 | 26559 ft | 416 kts | 317° |
| 2026-05-07 20:10 | 44.14388 | 15.33828 | 27319 ft | 429 kts | 333° |
| 2026-05-07 20:10 | 44.17183 | 15.32345 | 27683 ft | 431 kts | 333° |
| 2026-05-07 20:10 | 44.19989 | 15.30853 | 27990 ft | 433 kts | 333° |
| 2026-05-07 20:10 | 44.22805 | 15.29355 | 28299 ft | 434 kts | 333° |
| 2026-05-07 20:11 | 44.25632 | 15.27850 | 28612 ft | 435 kts | 332° |
| 2026-05-07 20:11 | 44.28466 | 15.26335 | 28906 ft | 436 kts | 332° |
| 2026-05-07 20:11 | 44.31303 | 15.24814 | 29185 ft | 437 kts | 332° |
| 2026-05-07 20:11 | 44.34145 | 15.23288 | 29455 ft | 438 kts | 332° |
| 2026-05-07 20:12 | 44.36999 | 15.21756 | 29739 ft | 439 kts | 332° |
| 2026-05-07 20:12 | 44.39861 | 15.20218 | 29943 ft | 442 kts | 332° |
| 2026-05-07 20:12 | 44.42731 | 15.18673 | 30197 ft | 442 kts | 332° |
| 2026-05-07 20:12 | 44.45602 | 15.17127 | 30490 ft | 441 kts | 332° |
| 2026-05-07 20:13 | 44.48430 | 15.15602 | 30802 ft | 440 kts | 332° |
| 2026-05-07 20:13 | 44.51288 | 15.14061 | 31133 ft | 439 kts | 332° |
| 2026-05-07 20:13 | 44.54137 | 15.12525 | 31433 ft | 438 kts | 332° |
| 2026-05-07 20:13 | 44.56980 | 15.10990 | 31716 ft | 438 kts | 332° |
| 2026-05-07 20:14 | 44.59819 | 15.09453 | 31961 ft | 438 kts | 332° |
| 2026-05-07 20:14 | 44.62664 | 15.07909 | 32202 ft | 439 kts | 332° |
| 2026-05-07 20:14 | 44.65518 | 15.06361 | 32473 ft | 438 kts | 332° |
| 2026-05-07 20:14 | 44.68364 | 15.04818 | 32726 ft | 438 kts | 332° |
| 2026-05-07 20:15 | 44.71209 | 15.03275 | 32966 ft | 438 kts | 331° |
| 2026-05-07 20:15 | 44.74050 | 15.01727 | 33224 ft | 438 kts | 331° |
| 2026-05-07 20:15 | 44.76891 | 15.00179 | 33473 ft | 438 kts | 331° |
| 2026-05-07 20:15 | 44.79729 | 14.98630 | 33701 ft | 438 kts | 331° |
| 2026-05-07 20:16 | 44.82536 | 14.97093 | 33964 ft | 437 kts | 331° |
| 2026-05-07 20:16 | 44.85406 | 14.95523 | 34231 ft | 437 kts | 331° |
| 2026-05-07 20:16 | 44.88204 | 14.93996 | 34480 ft | 436 kts | 331° |
| 2026-05-07 20:16 | 44.91031 | 14.92450 | 34721 ft | 436 kts | 331° |
| 2026-05-07 20:17 | 44.93856 | 14.90900 | 34947 ft | 436 kts | 331° |
| 2026-05-07 20:17 | 44.96682 | 14.89347 | 35151 ft | 436 kts | 331° |
| 2026-05-07 20:17 | 44.99511 | 14.87792 | 35362 ft | 436 kts | 331° |
| 2026-05-07 20:17 | 45.02336 | 14.86235 | 35545 ft | 436 kts | 331° |
| 2026-05-07 20:18 | 45.05164 | 14.84677 | 35724 ft | 436 kts | 331° |
| 2026-05-07 20:18 | 45.07990 | 14.83117 | 35905 ft | 436 kts | 331° |
| 2026-05-07 20:18 | 45.10822 | 14.81551 | 36045 ft | 437 kts | 331° |
| 2026-05-07 20:19 | 45.16500 | 14.78410 | 36083 ft | 438 kts | 331° |
| 2026-05-07 20:19 | 45.22178 | 14.75280 | 36091 ft | 438 kts | 331° |
| 2026-05-07 20:20 | 45.27823 | 14.72153 | 36080 ft | 438 kts | 331° |
| 2026-05-07 20:20 | 45.33543 | 14.68975 | 36079 ft | 438 kts | 331° |
| 2026-05-07 20:21 | 45.39215 | 14.65813 | 36076 ft | 438 kts | 331° |
| 2026-05-07 20:21 | 45.44890 | 14.62642 | 36079 ft | 438 kts | 332° |
| 2026-05-07 20:22 | 45.50533 | 14.59485 | 36072 ft | 439 kts | 332° |
| 2026-05-07 20:22 | 45.56218 | 14.56289 | 36085 ft | 439 kts | 332° |
| 2026-05-07 20:23 | 45.61904 | 14.53089 | 36078 ft | 439 kts | 332° |
| 2026-05-07 20:23 | 45.67591 | 14.49884 | 36074 ft | 440 kts | 332° |
| 2026-05-07 20:24 | 45.73282 | 14.46671 | 36063 ft | 440 kts | 332° |
| 2026-05-07 20:24 | 45.78982 | 14.43448 | 36059 ft | 440 kts | 332° |
| 2026-05-07 20:25 | 45.84680 | 14.40223 | 36052 ft | 440 kts | 332° |
| 2026-05-07 20:25 | 45.90338 | 14.37002 | 36050 ft | 440 kts | 332° |
| 2026-05-07 20:26 | 45.96031 | 14.33751 | 36070 ft | 440 kts | 332° |
| 2026-05-07 20:26 | 46.01722 | 14.30504 | 36069 ft | 440 kts | 332° |
| 2026-05-07 20:27 | 46.07415 | 14.27254 | 36082 ft | 440 kts | 332° |
| 2026-05-07 20:27 | 46.13104 | 14.23993 | 36078 ft | 440 kts | 332° |
| 2026-05-07 20:28 | 46.18801 | 14.20718 | 36064 ft | 440 kts | 332° |
| 2026-05-07 20:28 | 46.24492 | 14.17440 | 36064 ft | 441 kts | 332° |
| 2026-05-07 20:29 | 46.30189 | 14.14153 | 36081 ft | 441 kts | 332° |
| 2026-05-07 20:29 | 46.35888 | 14.10851 | 36086 ft | 441 kts | 332° |
| 2026-05-07 20:30 | 46.41577 | 14.07548 | 36082 ft | 440 kts | 332° |
| 2026-05-07 20:30 | 46.47227 | 14.04256 | 36082 ft | 440 kts | 332° |
| 2026-05-07 20:31 | 46.52924 | 14.00973 | 36102 ft | 440 kts | 332° |
| 2026-05-07 20:31 | 46.58639 | 13.97766 | 36096 ft | 441 kts | 333° |
| 2026-05-07 20:32 | 46.64363 | 13.94554 | 36085 ft | 441 kts | 333° |
| 2026-05-07 20:32 | 46.70079 | 13.91313 | 36084 ft | 441 kts | 332° |
| 2026-05-07 20:33 | 46.75798 | 13.88057 | 36107 ft | 440 kts | 333° |
| 2026-05-07 20:33 | 46.81506 | 13.84795 | 36091 ft | 441 kts | 333° |
| 2026-05-07 20:34 | 46.87177 | 13.81553 | 36079 ft | 441 kts | 333° |
| 2026-05-07 20:34 | 46.92894 | 13.78283 | 36078 ft | 441 kts | 333° |
| 2026-05-07 20:35 | 46.98609 | 13.75004 | 36104 ft | 441 kts | 333° |
| 2026-05-07 20:35 | 47.04330 | 13.71704 | 36085 ft | 442 kts | 333° |
| 2026-05-07 20:36 | 47.10048 | 13.68397 | 36089 ft | 442 kts | 333° |
| 2026-05-07 20:36 | 47.15766 | 13.65086 | 36090 ft | 441 kts | 333° |
| 2026-05-07 20:37 | 47.21495 | 13.61773 | 36109 ft | 442 kts | 333° |
| 2026-05-07 20:37 | 47.27188 | 13.58467 | 36097 ft | 443 kts | 333° |
| 2026-05-07 20:38 | 47.32917 | 13.55135 | 36090 ft | 443 kts | 333° |
| 2026-05-07 20:38 | 47.38648 | 13.51790 | 36092 ft | 443 kts | 333° |
| 2026-05-07 20:39 | 47.44380 | 13.48434 | 36106 ft | 444 kts | 333° |
| 2026-05-07 20:39 | 47.50129 | 13.45056 | 36100 ft | 444 kts | 333° |
| 2026-05-07 20:40 | 47.55870 | 13.41667 | 36097 ft | 444 kts | 333° |
| 2026-05-07 20:40 | 47.61610 | 13.38279 | 36088 ft | 444 kts | 333° |
| 2026-05-07 20:41 | 47.67356 | 13.34886 | 36108 ft | 444 kts | 334° |
| 2026-05-07 20:41 | 47.73064 | 13.31514 | 36094 ft | 445 kts | 334° |
| 2026-05-07 20:42 | 47.78813 | 13.28109 | 36083 ft | 445 kts | 334° |
| 2026-05-07 20:42 | 47.84557 | 13.24689 | 36073 ft | 445 kts | 334° |
| 2026-05-07 20:43 | 47.90309 | 13.21255 | 36091 ft | 445 kts | 334° |
| 2026-05-07 20:43 | 47.96059 | 13.17819 | 36084 ft | 445 kts | 334° |
| 2026-05-07 20:44 | 48.01803 | 13.14372 | 36083 ft | 445 kts | 334° |
| 2026-05-07 20:44 | 48.07550 | 13.10927 | 36074 ft | 445 kts | 334° |
| 2026-05-07 20:45 | 48.13296 | 13.07477 | 36077 ft | 445 kts | 334° |
| 2026-05-07 20:45 | 48.18071 | 13.04594 | 36081 ft | 445 kts | 334° |
| 2026-05-07 20:46 | 48.23416 | 13.00171 | 36082 ft | 436 kts | 317° |
| 2026-05-07 20:46 | 48.27633 | 12.93769 | 36081 ft | 430 kts | 308° |
| 2026-05-07 20:47 | 48.31603 | 12.87028 | 36076 ft | 431 kts | 308° |
| 2026-05-07 20:47 | 48.35553 | 12.80338 | 36074 ft | 431 kts | 308° |
| 2026-05-07 20:48 | 48.39526 | 12.73582 | 36078 ft | 431 kts | 308° |
| 2026-05-07 20:48 | 48.43489 | 12.66811 | 36066 ft | 431 kts | 308° |
| 2026-05-07 20:49 | 48.47458 | 12.60024 | 36064 ft | 432 kts | 308° |
| 2026-05-07 20:49 | 48.51421 | 12.53223 | 36069 ft | 432 kts | 308° |
| 2026-05-07 20:50 | 48.55387 | 12.46408 | 36065 ft | 432 kts | 308° |
| 2026-05-07 20:50 | 48.59345 | 12.39577 | 36069 ft | 432 kts | 308° |
| 2026-05-07 20:51 | 48.63296 | 12.32742 | 36081 ft | 432 kts | 308° |
| 2026-05-07 20:51 | 48.67219 | 12.25935 | 36079 ft | 432 kts | 308° |
| 2026-05-07 20:52 | 48.71164 | 12.19064 | 36084 ft | 433 kts | 308° |
| 2026-05-07 20:52 | 48.74467 | 12.11554 | 36078 ft | 427 kts | 291° |
| 2026-05-07 20:53 | 48.76000 | 12.02933 | 36074 ft | 424 kts | 278° |
| 2026-05-07 20:53 | 48.76955 | 11.94100 | 36073 ft | 425 kts | 278° |
| 2026-05-07 20:54 | 48.77906 | 11.85264 | 36070 ft | 425 kts | 278° |
| 2026-05-07 20:54 | 48.78846 | 11.76411 | 36071 ft | 425 kts | 278° |
| 2026-05-07 20:55 | 48.79772 | 11.67559 | 36072 ft | 425 kts | 278° |
| 2026-05-07 20:55 | 48.80700 | 11.58698 | 36072 ft | 425 kts | 278° |
| 2026-05-07 20:56 | 48.81623 | 11.49840 | 36076 ft | 425 kts | 278° |
| 2026-05-07 20:56 | 48.82538 | 11.40985 | 36075 ft | 425 kts | 278° |
| 2026-05-07 20:57 | 48.83439 | 11.32118 | 36072 ft | 425 kts | 278° |
| 2026-05-07 20:57 | 48.85036 | 11.23567 | 36071 ft | 427 kts | 295° |
| 2026-05-07 20:58 | 48.88529 | 11.16278 | 36071 ft | 432 kts | 314° |
| 2026-05-07 20:58 | 48.92974 | 11.10107 | 36076 ft | 433 kts | 315° |
| 2026-05-07 20:59 | 48.97418 | 11.03907 | 36086 ft | 433 kts | 315° |
| 2026-05-07 20:59 | 49.01853 | 10.97691 | 36096 ft | 433 kts | 315° |
| 2026-05-07 21:00 | 49.06289 | 10.91452 | 36107 ft | 433 kts | 315° |
| 2026-05-07 21:00 | 49.10712 | 10.85214 | 36070 ft | 432 kts | 315° |
| 2026-05-07 21:00 | 49.12922 | 10.82091 | 35473 ft | 432 kts | 315° |
| 2026-05-07 21:01 | 49.15128 | 10.78966 | 34754 ft | 433 kts | 315° |
| 2026-05-07 21:01 | 49.17332 | 10.75840 | 34061 ft | 432 kts | 315° |
| 2026-05-07 21:01 | 49.19530 | 10.72718 | 33240 ft | 432 kts | 314° |
| 2026-05-07 21:01 | 49.21664 | 10.69570 | 32396 ft | 431 kts | 313° |
| 2026-05-07 21:02 | 49.23772 | 10.66301 | 31522 ft | 432 kts | 312° |
| 2026-05-07 21:02 | 49.25853 | 10.62976 | 30689 ft | 432 kts | 312° |
| 2026-05-07 21:02 | 49.27907 | 10.59658 | 30039 ft | 428 kts | 313° |
| 2026-05-07 21:02 | 49.29947 | 10.56368 | 29304 ft | 424 kts | 313° |
| 2026-05-07 21:03 | 49.31975 | 10.53114 | 28604 ft | 420 kts | 313° |
| 2026-05-07 21:03 | 49.33989 | 10.49904 | 27935 ft | 416 kts | 313° |
| 2026-05-07 21:03 | 49.35963 | 10.46683 | 27290 ft | 411 kts | 309° |
| 2026-05-07 21:03 | 49.37657 | 10.43174 | 26655 ft | 407 kts | 304° |
| 2026-05-07 21:04 | 49.39283 | 10.39635 | 26036 ft | 404 kts | 304° |
| 2026-05-07 21:04 | 49.40871 | 10.36163 | 25446 ft | 401 kts | 304° |
| 2026-05-07 21:04 | 49.42463 | 10.32674 | 24863 ft | 397 kts | 304° |
| 2026-05-07 21:04 | 49.44041 | 10.29202 | 24279 ft | 394 kts | 304° |
| 2026-05-07 21:05 | 49.45603 | 10.25759 | 23811 ft | 391 kts | 304° |
| 2026-05-07 21:05 | 49.47159 | 10.22331 | 23790 ft | 392 kts | 304° |
| 2026-05-07 21:05 | 49.48721 | 10.18889 | 23784 ft | 393 kts | 304° |
| 2026-05-07 21:05 | 49.50286 | 10.15434 | 23786 ft | 393 kts | 304° |
| 2026-05-07 21:06 | 49.51847 | 10.11977 | 23777 ft | 393 kts | 304° |
| 2026-05-07 21:06 | 49.53409 | 10.08519 | 23791 ft | 394 kts | 304° |
| 2026-05-07 21:06 | 49.54975 | 10.05041 | 23777 ft | 395 kts | 304° |
| 2026-05-07 21:06 | 49.56537 | 10.01568 | 23763 ft | 395 kts | 304° |
| 2026-05-07 21:07 | 49.58104 | 9.98088 | 22791 ft | 400 kts | 304° |
| 2026-05-07 21:07 | 49.59695 | 9.94557 | 22132 ft | 398 kts | 304° |
| 2026-05-07 21:07 | 49.61254 | 9.91096 | 21760 ft | 389 kts | 304° |
| 2026-05-07 21:07 | 49.62784 | 9.87688 | 21317 ft | 384 kts | 304° |
| 2026-05-07 21:08 | 49.64295 | 9.84315 | 20876 ft | 380 kts | 303° |
| 2026-05-07 21:08 | 49.65792 | 9.80965 | 20436 ft | 378 kts | 303° |
| 2026-05-07 21:08 | 49.67281 | 9.77638 | 20010 ft | 375 kts | 303° |
| 2026-05-07 21:08 | 49.68760 | 9.74326 | 19578 ft | 373 kts | 303° |
| 2026-05-07 21:09 | 49.70207 | 9.71072 | 19156 ft | 371 kts | 303° |
| 2026-05-07 21:09 | 49.71659 | 9.67799 | 18734 ft | 369 kts | 303° |
| 2026-05-07 21:09 | 49.73106 | 9.64536 | 18303 ft | 367 kts | 303° |
| 2026-05-07 21:09 | 49.74546 | 9.61292 | 17839 ft | 365 kts | 303° |
| 2026-05-07 21:10 | 49.75979 | 9.58065 | 17374 ft | 362 kts | 303° |
| 2026-05-07 21:10 | 49.77400 | 9.54855 | 16920 ft | 360 kts | 303° |
| 2026-05-07 21:10 | 49.78811 | 9.51662 | 16455 ft | 358 kts | 303° |
| 2026-05-07 21:10 | 49.80216 | 9.48486 | 16016 ft | 357 kts | 303° |
| 2026-05-07 21:11 | 49.81616 | 9.45320 | 15578 ft | 355 kts | 303° |
| 2026-05-07 21:11 | 49.83002 | 9.42174 | 15122 ft | 352 kts | 303° |
| 2026-05-07 21:11 | 49.85707 | 9.35899 | 14248 ft | 347 kts | 298° |
| 2026-05-07 21:12 | 49.86666 | 9.32497 | 13853 ft | 343 kts | 287° |
| 2026-05-07 21:12 | 49.87342 | 9.28954 | 13514 ft | 342 kts | 285° |
| 2026-05-07 21:12 | 49.88018 | 9.25424 | 13159 ft | 341 kts | 286° |
| 2026-05-07 21:12 | 49.88693 | 9.21911 | 12819 ft | 340 kts | 286° |
| 2026-05-07 21:13 | 49.89364 | 9.18402 | 12478 ft | 338 kts | 286° |
| 2026-05-07 21:13 | 49.90030 | 9.14918 | 12146 ft | 335 kts | 286° |
| 2026-05-07 21:13 | 49.90676 | 9.11521 | 12005 ft | 322 kts | 286° |
| 2026-05-07 21:13 | 49.91296 | 9.08252 | 11868 ft | 310 kts | 286° |
| 2026-05-07 21:14 | 49.91893 | 9.05106 | 11736 ft | 299 kts | 286° |
| 2026-05-07 21:14 | 49.92474 | 9.02044 | 11454 ft | 294 kts | 286° |
| 2026-05-07 21:14 | 49.93053 | 8.99015 | 11095 ft | 292 kts | 286° |
| 2026-05-07 21:14 | 49.93624 | 8.96037 | 10728 ft | 291 kts | 286° |
| 2026-05-07 21:15 | 49.94198 | 8.93032 | 10383 ft | 289 kts | 286° |
| 2026-05-07 21:15 | 49.94762 | 8.90059 | 10144 ft | 286 kts | 286° |
| 2026-05-07 21:15 | 49.95322 | 8.87108 | 9935 ft | 285 kts | 286° |
| 2026-05-07 21:15 | 49.95880 | 8.84157 | 9709 ft | 284 kts | 286° |
| 2026-05-07 21:16 | 49.96434 | 8.81221 | 9449 ft | 282 kts | 286° |
| 2026-05-07 21:16 | 49.96986 | 8.78299 | 9245 ft | 281 kts | 286° |
| 2026-05-07 21:16 | 49.97539 | 8.75389 | 9038 ft | 280 kts | 286° |
| 2026-05-07 21:16 | 49.97862 | 8.72419 | 8845 ft | 279 kts | 271° |
| 2026-05-07 21:17 | 49.97655 | 8.69437 | 8648 ft | 278 kts | 256° |
| 2026-05-07 21:17 | 49.97015 | 8.66604 | 8450 ft | 278 kts | 250° |
| 2026-05-07 21:17 | 49.96333 | 8.63800 | 8253 ft | 277 kts | 250° |
| 2026-05-07 21:17 | 49.95658 | 8.61001 | 8053 ft | 276 kts | 250° |
| 2026-05-07 21:18 | 49.94987 | 8.58212 | 7854 ft | 275 kts | 250° |
| 2026-05-07 21:18 | 49.94320 | 8.55440 | 7652 ft | 274 kts | 250° |
| 2026-05-07 21:18 | 49.93653 | 8.52672 | 7467 ft | 273 kts | 250° |
| 2026-05-07 21:18 | 49.92999 | 8.49951 | 7273 ft | 272 kts | 250° |
| 2026-05-07 21:19 | 49.92338 | 8.47207 | 7086 ft | 271 kts | 250° |
| 2026-05-07 21:19 | 49.91678 | 8.44464 | 6856 ft | 270 kts | 250° |
| 2026-05-07 21:19 | 49.91022 | 8.41743 | 6675 ft | 269 kts | 250° |
| 2026-05-07 21:19 | 49.90375 | 8.39080 | 6515 ft | 257 kts | 250° |
| 2026-05-07 21:20 | 49.89760 | 8.36547 | 6399 ft | 245 kts | 250° |
| 2026-05-07 21:20 | 49.89174 | 8.34123 | 6199 ft | 237 kts | 250° |
| 2026-05-07 21:20 | 49.88600 | 8.31744 | 5976 ft | 235 kts | 250° |
| 2026-05-07 21:20 | 49.88026 | 8.29366 | 5781 ft | 236 kts | 250° |
| 2026-05-07 21:21 | 49.87486 | 8.26973 | 5559 ft | 235 kts | 259° |
| 2026-05-07 21:21 | 49.87439 | 8.24467 | 5354 ft | 233 kts | 281° |
| 2026-05-07 21:21 | 49.88009 | 8.22138 | 5146 ft | 232 kts | 303° |
| 2026-05-07 21:21 | 49.89094 | 8.20320 | 4987 ft | 229 kts | 326° |
| 2026-05-07 21:22 | 49.90536 | 8.19280 | 4998 ft | 230 kts | 347° |
| 2026-05-07 21:22 | 49.92131 | 8.19139 | 4982 ft | 231 kts | 8° |
| 2026-05-07 21:22 | 49.93631 | 8.19911 | 4867 ft | 232 kts | 30° |
| 2026-05-07 21:22 | 49.94851 | 8.21521 | 4647 ft | 232 kts | 52° |
| 2026-05-07 21:23 | 49.95594 | 8.23730 | 4364 ft | 231 kts | 69° |
| 2026-05-07 21:23 | 49.96155 | 8.26058 | 4058 ft | 228 kts | 69° |
| 2026-05-07 21:23 | 49.96709 | 8.28355 | 3754 ft | 227 kts | 69° |
| 2026-05-07 21:23 | 49.97256 | 8.30612 | 3445 ft | 219 kts | 69° |
| 2026-05-07 21:24 | 49.97779 | 8.32773 | 3160 ft | 209 kts | 69° |
| 2026-05-07 21:24 | 49.98280 | 8.34842 | 2883 ft | 200 kts | 69° |
| 2026-05-07 21:24 | 49.98758 | 8.36820 | 2653 ft | 190 kts | 69° |
| 2026-05-07 21:24 | 49.99209 | 8.38686 | 2366 ft | 178 kts | 69° |
| 2026-05-07 21:25 | 49.99629 | 8.40429 | 2123 ft | 167 kts | 69° |
| 2026-05-07 21:25 | 50.00024 | 8.42064 | 1901 ft | 156 kts | 69° |
| 2026-05-07 21:25 | 50.00389 | 8.43579 | 1717 ft | 142 kts | 69° |
| 2026-05-07 21:25 | 50.00728 | 8.44989 | 1534 ft | 137 kts | 69° |
| 2026-05-07 21:26 | 50.01059 | 8.46365 | 1343 ft | 135 kts | 69° |
| 2026-05-07 21:26 | 50.01389 | 8.47734 | 1155 ft | 135 kts | 69° |
| 2026-05-07 21:26 | 50.01716 | 8.49108 | 956 ft | 135 kts | 69° |
| 2026-05-07 21:26 | 50.02046 | 8.50476 | 759 ft | 135 kts | 68° |
| 2026-05-07 21:27 | 50.02375 | 8.51841 | 586 ft | 134 kts | 67° |
| 2026-05-07 21:27 | 50.02696 | 8.53173 | 399 ft | 133 kts | 67° |
| 2026-05-07 21:27 | 50.03012 | 8.54469 | 333 ft | 110 kts | 70° |
| 2026-05-07 21:27 | 50.03214 | 8.55334 | 347 ft | 64 kts | 71° |
| 2026-05-07 21:28 | 50.03310 | 8.55757 | 352 ft | 33 kts | 68° |
| 2026-05-07 21:28 | 50.03389 | 8.56067 | 354 ft | 29 kts | 69° |
| 2026-05-07 21:28 | 50.03494 | 8.56315 | 354 ft | 27 kts | 46° |
| 2026-05-07 21:28 | 50.03603 | 8.56459 | 352 ft | 17 kts | 39° |
| 2026-05-07 21:29 | 50.03690 | 8.56571 | 352 ft | 17 kts | 40° |
| 2026-05-07 21:29 | 50.03794 | 8.56652 | 353 ft | 17 kts | 10° |
| 2026-05-07 21:29 | 50.03909 | 8.56687 | 360 ft | 17 kts | 12° |
| 2026-05-07 21:29 | 50.04029 | 8.56726 | 357 ft | 18 kts | 12° |
| 2026-05-07 21:30 | 50.04147 | 8.56764 | 358 ft | 5 kts | 12° |
| 2026-05-07 21:30 | 50.04149 | 8.56765 | 358 ft | 0 kts | 12° |
| 2026-05-07 21:30 | 50.04158 | 8.56767 | 358 ft | 5 kts | 11° |
| 2026-05-07 21:30 | 50.04220 | 8.56790 | 365 ft | 13 kts | 17° |
| 2026-05-07 21:31 | 50.04275 | 8.56903 | 362 ft | 15 kts | 69° |
| 2026-05-07 21:31 | 50.04314 | 8.57061 | 364 ft | 16 kts | 69° |
| 2026-05-07 21:31 | 50.04354 | 8.57229 | 362 ft | 17 kts | 69° |
| 2026-05-07 21:31 | 50.04399 | 8.57416 | 364 ft | 19 kts | 69° |
| 2026-05-07 21:32 | 50.04447 | 8.57619 | 367 ft | 20 kts | 70° |
| 2026-05-07 21:32 | 50.04497 | 8.57829 | 366 ft | 22 kts | 70° |
| 2026-05-07 21:32 | 50.04543 | 8.58010 | 367 ft | 15 kts | 58° |
| 2026-05-07 21:32 | 50.04650 | 8.57995 | 363 ft | 19 kts | 339° |
| 2026-05-07 21:33 | 50.04781 | 8.57919 | 364 ft | 16 kts | 339° |
| 2026-05-07 21:33 | 50.04846 | 8.57859 | 358 ft | 7 kts | 318° |
| 2026-05-07 21:33 | 50.04881 | 8.57853 | 358 ft | 4 kts | 20° |
| 2026-05-07 21:33 | 50.04897 | 8.57863 | 363 ft | 2 kts | 21° |
| 2026-05-07 21:34 | 50.04921 | 8.57877 | 363 ft | 1 kts | 21° |